sensor_id;sensor_type;location;lat;lon;timestamp;pressure;altitude;pressure_sealevel;temperature;humidity
31911;BME280;18457;52.432;16.914;2023-04-29T00:00:25;100066.22;;;12.71;58.67
31911;BME280;18457;52.432;16.914;2023-04-29T00:03:17;100064.51;;;12.73;58.71
31911;BME280;18457;52.432;16.914;2023-04-29T00:05:49;100062.08;;;12.75;58.69
31911;BME280;18457;52.432;16.914;2023-04-29T00:08:21;100064.38;;;12.71;58.87
31911;BME280;18457;52.432;16.914;2023-04-29T00:10:53;100062.14;;;12.73;58.85
31911;BME280;18457;52.432;16.914;2023-04-29T00:13:24;100067.07;;;12.77;58.89
31911;BME280;18457;52.432;16.914;2023-04-29T00:15:56;100066.72;;;12.77;59.05
31911;BME280;18457;52.432;16.914;2023-04-29T00:18:28;100066.34;;;12.72;59.75
31911;BME280;18457;52.432;16.914;2023-04-29T00:21:01;100067.12;;;12.71;59.81
31911;BME280;18457;52.432;16.914;2023-04-29T00:23:35;100063.66;;;12.71;59.91
31911;BME280;18457;52.432;16.914;2023-04-29T00:26:07;100058.90;;;12.68;59.96
31911;BME280;18457;52.432;16.914;2023-04-29T00:28:39;100061.19;;;12.65;60.13
31911;BME280;18457;52.432;16.914;2023-04-29T00:31:11;100056.80;;;12.66;59.99
31911;BME280;18457;52.432;16.914;2023-04-29T00:33:43;100056.81;;;12.66;60.24
31911;BME280;18457;52.432;16.914;2023-04-29T00:36:15;100050.64;;;12.66;60.41
31911;BME280;18457;52.432;16.914;2023-04-29T00:38:47;100048.79;;;12.67;60.07
31911;BME280;18457;52.432;16.914;2023-04-29T00:41:19;100042.77;;;12.68;60.21
31911;BME280;18457;52.432;16.914;2023-04-29T00:43:51;100042.55;;;12.69;60.25
31911;BME280;18457;52.432;16.914;2023-04-29T00:46:23;100039.21;;;12.66;60.55
31911;BME280;18457;52.432;16.914;2023-04-29T00:48:55;100039.48;;;12.68;60.42
31911;BME280;18457;52.432;16.914;2023-04-29T00:51:27;100049.55;;;12.71;60.36
31911;BME280;18457;52.432;16.914;2023-04-29T00:53:59;100046.71;;;12.74;60.17
31911;BME280;18457;52.432;16.914;2023-04-29T00:56:33;100049.20;;;12.75;60.28
31911;BME280;18457;52.432;16.914;2023-04-29T00:59:06;100052.30;;;12.70;60.95
31911;BME280;18457;52.432;16.914;2023-04-29T01:01:39;100060.42;;;12.66;61.04
31911;BME280;18457;52.432;16.914;2023-04-29T01:04:12;100056.46;;;12.61;61.40
31911;BME280;18457;52.432;16.914;2023-04-29T01:06:52;100054.27;;;12.56;61.61
31911;BME280;18457;52.432;16.914;2023-04-29T01:09:42;100050.31;;;12.60;61.39
31911;BME280;18457;52.432;16.914;2023-04-29T01:12:28;100052.36;;;12.63;61.59
31911;BME280;18457;52.432;16.914;2023-04-29T01:15:08;100052.16;;;12.64;61.39
31911;BME280;18457;52.432;16.914;2023-04-29T01:17:46;100051.69;;;12.62;61.46
31911;BME280;18457;52.432;16.914;2023-04-29T01:20:21;100052.09;;;12.62;61.57
31911;BME280;18457;52.432;16.914;2023-04-29T01:22:54;100050.47;;;12.61;61.59
31911;BME280;18457;52.432;16.914;2023-04-29T01:25:26;100051.05;;;12.65;61.56
31911;BME280;18457;52.432;16.914;2023-04-29T01:28:21;100050.70;;;12.64;61.62
31911;BME280;18457;52.432;16.914;2023-04-29T01:31:03;100049.88;;;12.62;61.73
31911;BME280;18457;52.432;16.914;2023-04-29T01:33:43;100051.11;;;12.63;61.93
31911;BME280;18457;52.432;16.914;2023-04-29T01:36:23;100048.81;;;12.66;61.83
31911;BME280;18457;52.432;16.914;2023-04-29T01:39:06;100050.80;;;12.66;61.93
31911;BME280;18457;52.432;16.914;2023-04-29T01:41:43;100048.23;;;12.63;62.16
31911;BME280;18457;52.432;16.914;2023-04-29T01:44:26;100047.27;;;12.59;62.32
31911;BME280;18457;52.432;16.914;2023-04-29T01:47:01;100050.74;;;12.58;62.29
31911;BME280;18457;52.432;16.914;2023-04-29T01:49:39;100047.29;;;12.59;62.28
31911;BME280;18457;52.432;16.914;2023-04-29T01:52:11;100047.13;;;12.58;62.54
31911;BME280;18457;52.432;16.914;2023-04-29T01:54:46;100050.36;;;12.59;62.58
31911;BME280;18457;52.432;16.914;2023-04-29T01:57:18;100053.03;;;12.60;62.66
31911;BME280;18457;52.432;16.914;2023-04-29T02:00:12;100052.02;;;12.59;63.16
31911;BME280;18457;52.432;16.914;2023-04-29T02:02:46;100052.00;;;12.59;63.08
31911;BME280;18457;52.432;16.914;2023-04-29T02:05:36;100051.27;;;12.59;63.25
31911;BME280;18457;52.432;16.914;2023-04-29T02:08:09;100047.48;;;12.59;63.52
31911;BME280;18457;52.432;16.914;2023-04-29T02:10:52;100048.24;;;12.57;63.62
31911;BME280;18457;52.432;16.914;2023-04-29T02:13:44;100045.92;;;12.57;63.87
31911;BME280;18457;52.432;16.914;2023-04-29T02:16:17;100047.16;;;12.57;63.80
31911;BME280;18457;52.432;16.914;2023-04-29T02:19:01;100050.05;;;12.58;63.69
31911;BME280;18457;52.432;16.914;2023-04-29T02:21:33;100048.13;;;12.56;64.07
31911;BME280;18457;52.432;16.914;2023-04-29T02:24:05;100048.90;;;12.55;64.28
31911;BME280;18457;52.432;16.914;2023-04-29T02:26:37;100051.27;;;12.54;64.45
31911;BME280;18457;52.432;16.914;2023-04-29T02:29:09;100047.17;;;12.52;64.40
31911;BME280;18457;52.432;16.914;2023-04-29T02:31:41;100049.70;;;12.53;64.48
31911;BME280;18457;52.432;16.914;2023-04-29T02:34:13;100049.70;;;12.53;64.58
31911;BME280;18457;52.432;16.914;2023-04-29T02:36:44;100045.48;;;12.49;64.65
31911;BME280;18457;52.432;16.914;2023-04-29T02:39:16;100043.01;;;12.43;65.12
31911;BME280;18457;52.432;16.914;2023-04-29T02:41:47;100044.99;;;12.38;65.44
31911;BME280;18457;52.432;16.914;2023-04-29T02:44:20;100039.20;;;12.34;65.56
31911;BME280;18457;52.432;16.914;2023-04-29T02:46:51;100038.83;;;12.34;65.63
31911;BME280;18457;52.432;16.914;2023-04-29T02:49:24;100037.82;;;12.37;66.12
31911;BME280;18457;52.432;16.914;2023-04-29T02:51:56;100034.36;;;12.37;67.46
31911;BME280;18457;52.432;16.914;2023-04-29T02:54:28;100030.55;;;12.37;68.43
31911;BME280;18457;52.432;16.914;2023-04-29T02:56:59;100029.78;;;12.33;69.40
31911;BME280;18457;52.432;16.914;2023-04-29T02:59:31;100030.36;;;12.32;70.19
31911;BME280;18457;52.432;16.914;2023-04-29T03:02:03;100024.28;;;12.25;71.44
31911;BME280;18457;52.432;16.914;2023-04-29T03:04:35;100025.29;;;12.23;72.20
31911;BME280;18457;52.432;16.914;2023-04-29T03:07:09;100025.64;;;12.23;72.66
31911;BME280;18457;52.432;16.914;2023-04-29T03:09:41;100031.59;;;12.24;73.53
31911;BME280;18457;52.432;16.914;2023-04-29T03:12:13;100032.16;;;12.18;74.80
31911;BME280;18457;52.432;16.914;2023-04-29T03:14:44;100028.92;;;12.13;75.50
31911;BME280;18457;52.432;16.914;2023-04-29T03:17:17;100025.18;;;12.01;75.38
31911;BME280;18457;52.432;16.914;2023-04-29T03:19:49;100031.34;;;12.01;75.71
31911;BME280;18457;52.432;16.914;2023-04-29T03:22:23;100029.49;;;12.02;76.20
31911;BME280;18457;52.432;16.914;2023-04-29T03:24:55;100028.90;;;11.98;77.38
31911;BME280;18457;52.432;16.914;2023-04-29T03:27:27;100025.52;;;11.97;76.52
31911;BME280;18457;52.432;16.914;2023-04-29T03:29:59;100024.30;;;11.95;76.55
31911;BME280;18457;52.432;16.914;2023-04-29T03:32:30;100020.51;;;11.90;76.27
31911;BME280;18457;52.432;16.914;2023-04-29T03:35:04;100025.08;;;11.89;76.66
31911;BME280;18457;52.432;16.914;2023-04-29T03:37:42;100022.59;;;11.88;76.27
31911;BME280;18457;52.432;16.914;2023-04-29T03:40:20;100023.17;;;11.86;76.11
31911;BME280;18457;52.432;16.914;2023-04-29T03:42:53;100022.95;;;11.87;75.96
31911;BME280;18457;52.432;16.914;2023-04-29T03:45:26;100019.95;;;11.85;76.36
31911;BME280;18457;52.432;16.914;2023-04-29T03:47:57;100019.59;;;11.85;76.02
31911;BME280;18457;52.432;16.914;2023-04-29T03:50:30;100027.77;;;11.84;76.19
31911;BME280;18457;52.432;16.914;2023-04-29T03:53:02;100025.80;;;11.84;75.54
31911;BME280;18457;52.432;16.914;2023-04-29T03:55:34;100026.01;;;11.83;76.08
31911;BME280;18457;52.432;16.914;2023-04-29T03:58:06;100028.78;;;11.82;75.91
31911;BME280;18457;52.432;16.914;2023-04-29T04:00:38;100028.70;;;11.79;76.53
31911;BME280;18457;52.432;16.914;2023-04-29T04:03:13;100025.08;;;11.79;77.09
31911;BME280;18457;52.432;16.914;2023-04-29T04:05:46;100027.03;;;11.80;76.69
31911;BME280;18457;52.432;16.914;2023-04-29T04:08:18;100023.09;;;11.79;76.33
31911;BME280;18457;52.432;16.914;2023-04-29T04:11:13;100022.95;;;11.83;76.95
31911;BME280;18457;52.432;16.914;2023-04-29T04:13:50;100024.22;;;11.83;76.51
31911;BME280;18457;52.432;16.914;2023-04-29T04:16:22;100026.52;;;11.84;76.39
31911;BME280;18457;52.432;16.914;2023-04-29T04:18:54;100022.49;;;11.80;76.67
31911;BME280;18457;52.432;16.914;2023-04-29T04:21:26;100032.16;;;11.83;77.39
31911;BME280;18457;52.432;16.914;2023-04-29T04:24:07;100029.64;;;11.83;77.80
31911;BME280;18457;52.432;16.914;2023-04-29T04:26:40;100035.05;;;11.84;77.42
31911;BME280;18457;52.432;16.914;2023-04-29T04:29:24;100035.59;;;11.84;77.39
31911;BME280;18457;52.432;16.914;2023-04-29T04:32:10;100030.52;;;11.84;77.61
31911;BME280;18457;52.432;16.914;2023-04-29T04:34:42;100033.34;;;11.81;77.34
31911;BME280;18457;52.432;16.914;2023-04-29T04:37:14;100034.25;;;11.80;77.49
31911;BME280;18457;52.432;16.914;2023-04-29T04:39:49;100025.28;;;11.83;77.44
31911;BME280;18457;52.432;16.914;2023-04-29T04:42:22;100025.08;;;11.84;77.24
31911;BME280;18457;52.432;16.914;2023-04-29T04:44:54;100025.77;;;11.80;77.60
31911;BME280;18457;52.432;16.914;2023-04-29T04:47:38;100021.29;;;11.78;77.42
31911;BME280;18457;52.432;16.914;2023-04-29T04:50:23;100018.14;;;11.81;77.90
31911;BME280;18457;52.432;16.914;2023-04-29T04:52:58;100017.94;;;11.81;77.57
31911;BME280;18457;52.432;16.914;2023-04-29T04:55:42;100014.77;;;11.78;78.25
31911;BME280;18457;52.432;16.914;2023-04-29T04:58:15;100016.58;;;11.79;78.19
31911;BME280;18457;52.432;16.914;2023-04-29T05:00:46;100010.45;;;11.83;78.28
31911;BME280;18457;52.432;16.914;2023-04-29T05:03:18;100007.38;;;11.88;77.68
31911;BME280;18457;52.432;16.914;2023-04-29T05:05:54;100009.02;;;11.87;77.82
31911;BME280;18457;52.432;16.914;2023-04-29T05:08:27;100006.34;;;11.91;78.73
31911;BME280;18457;52.432;16.914;2023-04-29T05:11:01;100005.67;;;11.94;79.41
31911;BME280;18457;52.432;16.914;2023-04-29T05:13:34;100007.45;;;12.01;79.59
31911;BME280;18457;52.432;16.914;2023-04-29T05:16:07;100003.77;;;12.03;79.23
31911;BME280;18457;52.432;16.914;2023-04-29T05:18:37;100007.11;;;12.05;79.05
31911;BME280;18457;52.432;16.914;2023-04-29T05:21:09;100008.50;;;12.07;78.11
31911;BME280;18457;52.432;16.914;2023-04-29T05:23:42;100001.84;;;12.10;78.28
31911;BME280;18457;52.432;16.914;2023-04-29T05:26:15;100004.44;;;12.13;78.21
31911;BME280;18457;52.432;16.914;2023-04-29T05:28:47;100003.52;;;12.14;78.01
31911;BME280;18457;52.432;16.914;2023-04-29T05:31:21;100002.22;;;12.20;77.71
31911;BME280;18457;52.432;16.914;2023-04-29T05:33:53;100000.99;;;12.23;77.23
31911;BME280;18457;52.432;16.914;2023-04-29T05:36:25;99998.19;;;12.26;77.02
31911;BME280;18457;52.432;16.914;2023-04-29T05:38:57;99998.16;;;12.26;77.28
31911;BME280;18457;52.432;16.914;2023-04-29T05:41:29;100001.30;;;12.34;76.50
31911;BME280;18457;52.432;16.914;2023-04-29T05:44:04;100002.05;;;12.43;76.06
31911;BME280;18457;52.432;16.914;2023-04-29T05:46:37;100001.85;;;12.49;76.33
31911;BME280;18457;52.432;16.914;2023-04-29T05:49:08;100002.09;;;12.52;75.90
31911;BME280;18457;52.432;16.914;2023-04-29T05:51:40;100001.42;;;12.59;75.55
31911;BME280;18457;52.432;16.914;2023-04-29T05:54:13;100004.41;;;12.62;75.63
31911;BME280;18457;52.432;16.914;2023-04-29T05:56:45;100008.50;;;12.63;74.33
31911;BME280;18457;52.432;16.914;2023-04-29T05:59:17;100014.25;;;12.61;74.51
31911;BME280;18457;52.432;16.914;2023-04-29T06:01:54;100011.91;;;12.64;73.69
31911;BME280;18457;52.432;16.914;2023-04-29T06:04:26;100011.06;;;12.72;72.76
31911;BME280;18457;52.432;16.914;2023-04-29T06:07:18;100015.64;;;12.80;72.28
31911;BME280;18457;52.432;16.914;2023-04-29T06:09:57;100014.09;;;12.87;71.69
31911;BME280;18457;52.432;16.914;2023-04-29T06:12:28;100019.01;;;12.91;71.90
31911;BME280;18457;52.432;16.914;2023-04-29T06:15:01;100018.91;;;12.98;71.54
31911;BME280;18457;52.432;16.914;2023-04-29T06:17:33;100019.83;;;13.02;70.77
31911;BME280;18457;52.432;16.914;2023-04-29T06:20:08;100019.84;;;12.98;70.66
31911;BME280;18457;52.432;16.914;2023-04-29T06:22:41;100021.63;;;12.93;70.40
31911;BME280;18457;52.432;16.914;2023-04-29T06:25:13;100025.66;;;12.92;70.69
31911;BME280;18457;52.432;16.914;2023-04-29T06:27:49;100028.55;;;12.93;70.68
31911;BME280;18457;52.432;16.914;2023-04-29T06:30:24;100027.65;;;12.97;70.45
31911;BME280;18457;52.432;16.914;2023-04-29T06:32:57;100025.49;;;13.01;69.62
31911;BME280;18457;52.432;16.914;2023-04-29T06:35:29;100027.98;;;13.07;69.64
31911;BME280;18457;52.432;16.914;2023-04-29T06:38:07;100031.92;;;13.13;70.00
31911;BME280;18457;52.432;16.914;2023-04-29T06:41:14;100029.35;;;13.15;70.39
31911;BME280;18457;52.432;16.914;2023-04-29T06:43:56;100031.66;;;13.20;70.36
31911;BME280;18457;52.432;16.914;2023-04-29T06:46:41;100026.42;;;13.24;70.43
31911;BME280;18457;52.432;16.914;2023-04-29T06:49:30;100025.01;;;13.28;71.51
31911;BME280;18457;52.432;16.914;2023-04-29T06:52:02;100022.14;;;13.27;72.59
31911;BME280;18457;52.432;16.914;2023-04-29T06:54:34;100019.80;;;13.27;72.78
31911;BME280;18457;52.432;16.914;2023-04-29T06:57:06;100019.15;;;13.20;73.22
31911;BME280;18457;52.432;16.914;2023-04-29T06:59:38;100016.17;;;13.26;72.63
31911;BME280;18457;52.432;16.914;2023-04-29T07:02:10;100011.09;;;13.30;71.92
31911;BME280;18457;52.432;16.914;2023-04-29T07:04:42;100013.05;;;13.36;72.22
31911;BME280;18457;52.432;16.914;2023-04-29T07:07:14;100012.56;;;13.43;71.49
31911;BME280;18457;52.432;16.914;2023-04-29T07:09:46;100014.81;;;13.50;71.78
31911;BME280;18457;52.432;16.914;2023-04-29T07:12:23;100016.66;;;13.57;70.97
31911;BME280;18457;52.432;16.914;2023-04-29T07:14:57;100014.69;;;13.61;70.77
31911;BME280;18457;52.432;16.914;2023-04-29T07:17:31;100015.95;;;13.69;71.08
31911;BME280;18457;52.432;16.914;2023-04-29T07:20:04;100015.84;;;13.76;70.06
31911;BME280;18457;52.432;16.914;2023-04-29T07:22:36;100017.25;;;13.77;69.66
31911;BME280;18457;52.432;16.914;2023-04-29T07:25:09;100016.98;;;13.79;70.16
31911;BME280;18457;52.432;16.914;2023-04-29T07:27:41;100014.55;;;13.81;69.51
31911;BME280;18457;52.432;16.914;2023-04-29T07:30:13;100017.27;;;13.81;69.50
31911;BME280;18457;52.432;16.914;2023-04-29T07:32:45;100020.13;;;13.86;69.53
31911;BME280;18457;52.432;16.914;2023-04-29T07:35:17;100022.39;;;13.88;69.27
31911;BME280;18457;52.432;16.914;2023-04-29T07:37:50;100019.63;;;13.93;69.52
31911;BME280;18457;52.432;16.914;2023-04-29T07:40:22;100015.35;;;13.95;69.44
31911;BME280;18457;52.432;16.914;2023-04-29T07:42:55;100013.66;;;13.93;69.67
31911;BME280;18457;52.432;16.914;2023-04-29T07:45:27;100014.80;;;13.91;69.32
31911;BME280;18457;52.432;16.914;2023-04-29T07:47:59;100016.88;;;13.94;69.03
31911;BME280;18457;52.432;16.914;2023-04-29T07:50:30;100016.64;;;13.99;68.85
31911;BME280;18457;52.432;16.914;2023-04-29T07:53:06;100013.55;;;14.08;68.79
31911;BME280;18457;52.432;16.914;2023-04-29T07:55:39;100012.97;;;14.12;68.90
31911;BME280;18457;52.432;16.914;2023-04-29T07:58:11;100003.58;;;14.19;68.15
31911;BME280;18457;52.432;16.914;2023-04-29T08:00:43;100007.93;;;14.32;68.29
31911;BME280;18457;52.432;16.914;2023-04-29T08:03:17;100007.11;;;14.46;68.27
31911;BME280;18457;52.432;16.914;2023-04-29T08:05:49;100006.10;;;14.51;67.71
31911;BME280;18457;52.432;16.914;2023-04-29T08:08:23;100006.58;;;14.57;67.51
31911;BME280;18457;52.432;16.914;2023-04-29T08:10:55;100005.75;;;14.59;67.13
31911;BME280;18457;52.432;16.914;2023-04-29T08:13:27;100011.59;;;14.62;67.29
31911;BME280;18457;52.432;16.914;2023-04-29T08:15:59;100004.65;;;14.63;67.05
31911;BME280;18457;52.432;16.914;2023-04-29T08:18:31;100007.42;;;14.69;68.40
31911;BME280;18457;52.432;16.914;2023-04-29T08:21:03;100008.48;;;14.70;66.49
31911;BME280;18457;52.432;16.914;2023-04-29T08:23:36;100011.94;;;14.81;65.57
31911;BME280;18457;52.432;16.914;2023-04-29T08:26:10;100009.90;;;14.86;65.80
31911;BME280;18457;52.432;16.914;2023-04-29T08:28:42;100014.14;;;15.00;65.79
31911;BME280;18457;52.432;16.914;2023-04-29T08:31:18;100017.88;;;15.13;65.94
31911;BME280;18457;52.432;16.914;2023-04-29T08:33:51;100018.79;;;15.17;66.64
31911;BME280;18457;52.432;16.914;2023-04-29T08:36:23;100021.98;;;15.11;65.84
31911;BME280;18457;52.432;16.914;2023-04-29T08:38:55;100021.37;;;15.13;65.77
31911;BME280;18457;52.432;16.914;2023-04-29T08:41:27;100022.95;;;15.17;65.49
31911;BME280;18457;52.432;16.914;2023-04-29T08:43:59;100032.61;;;15.24;65.90
31911;BME280;18457;52.432;16.914;2023-04-29T08:46:31;100028.34;;;15.26;66.42
31911;BME280;18457;52.432;16.914;2023-04-29T08:49:04;100029.50;;;15.28;66.00
31911;BME280;18457;52.432;16.914;2023-04-29T08:51:37;100029.55;;;15.30;66.42
31911;BME280;18457;52.432;16.914;2023-04-29T08:54:09;100025.34;;;15.28;67.92
31911;BME280;18457;52.432;16.914;2023-04-29T08:56:45;100027.42;;;15.33;67.48
31911;BME280;18457;52.432;16.914;2023-04-29T08:59:20;100027.52;;;15.32;67.06
31911;BME280;18457;52.432;16.914;2023-04-29T09:01:54;100030.67;;;15.46;66.37
31911;BME280;18457;52.432;16.914;2023-04-29T09:04:36;100034.33;;;15.52;65.53
31911;BME280;18457;52.432;16.914;2023-04-29T09:07:10;100037.68;;;15.69;66.42
31911;BME280;18457;52.432;16.914;2023-04-29T09:09:43;100034.93;;;15.69;64.92
31911;BME280;18457;52.432;16.914;2023-04-29T09:12:16;100033.20;;;15.78;64.92
31911;BME280;18457;52.432;16.914;2023-04-29T09:14:48;100033.78;;;15.84;65.02
31911;BME280;18457;52.432;16.914;2023-04-29T09:17:21;100033.38;;;15.89;64.79
31911;BME280;18457;52.432;16.914;2023-04-29T09:20:26;100028.95;;;15.89;65.02
31911;BME280;18457;52.432;16.914;2023-04-29T09:23:00;100032.73;;;15.94;64.82
31911;BME280;18457;52.432;16.914;2023-04-29T09:25:33;100028.38;;;16.21;69.29
31911;BME280;18457;52.432;16.914;2023-04-29T09:28:14;100027.88;;;16.30;66.20
31911;BME280;18457;52.432;16.914;2023-04-29T09:30:47;100028.86;;;16.46;67.35
31911;BME280;18457;52.432;16.914;2023-04-29T09:33:20;100031.73;;;16.60;67.06
31911;BME280;18457;52.432;16.914;2023-04-29T09:35:52;100033.45;;;16.55;62.74
31911;BME280;18457;52.432;16.914;2023-04-29T09:38:25;100038.08;;;16.54;61.98
31911;BME280;18457;52.432;16.914;2023-04-29T09:40:57;100032.77;;;16.61;64.72
31911;BME280;18457;52.432;16.914;2023-04-29T09:43:32;100036.13;;;16.64;63.67
31911;BME280;18457;52.432;16.914;2023-04-29T09:46:04;100035.86;;;16.69;62.14
31911;BME280;18457;52.432;16.914;2023-04-29T09:48:36;100033.43;;;16.76;61.73
31911;BME280;18457;52.432;16.914;2023-04-29T09:51:08;100038.48;;;16.74;61.07
31911;BME280;18457;52.432;16.914;2023-04-29T09:53:40;100039.33;;;16.78;60.49
31911;BME280;18457;52.432;16.914;2023-04-29T09:56:12;100032.52;;;16.79;60.37
31911;BME280;18457;52.432;16.914;2023-04-29T09:58:44;100037.56;;;16.84;60.59
31911;BME280;18457;52.432;16.914;2023-04-29T10:01:16;100037.61;;;16.90;60.99
31911;BME280;18457;52.432;16.914;2023-04-29T10:03:52;100039.17;;;16.94;60.04
31911;BME280;18457;52.432;16.914;2023-04-29T10:06:26;100037.65;;;16.95;59.28
31911;BME280;18457;52.432;16.914;2023-04-29T10:08:56;100040.70;;;17.02;59.50
31911;BME280;18457;52.432;16.914;2023-04-29T10:11:28;100041.30;;;17.08;59.56
31911;BME280;18457;52.432;16.914;2023-04-29T10:14:01;100040.61;;;17.13;60.15
31911;BME280;18457;52.432;16.914;2023-04-29T10:16:42;100038.73;;;17.18;59.78
31911;BME280;18457;52.432;16.914;2023-04-29T10:19:25;100039.44;;;17.15;58.97
31911;BME280;18457;52.432;16.914;2023-04-29T10:21:57;100041.40;;;17.09;59.47
31911;BME280;18457;52.432;16.914;2023-04-29T10:24:32;100037.79;;;17.40;65.53
31911;BME280;18457;52.432;16.914;2023-04-29T10:27:07;100034.89;;;17.71;65.99
31911;BME280;18457;52.432;16.914;2023-04-29T10:29:43;100029.95;;;18.04;67.29
31911;BME280;18457;52.432;16.914;2023-04-29T10:32:16;100031.77;;;18.25;66.38
31911;BME280;18457;52.432;16.914;2023-04-29T10:34:50;100028.89;;;18.45;65.64
31911;BME280;18457;52.432;16.914;2023-04-29T10:37:23;100028.96;;;18.38;62.25
31911;BME280;18457;52.432;16.914;2023-04-29T10:40:00;100032.14;;;17.95;60.27
31911;BME280;18457;52.432;16.914;2023-04-29T10:42:44;100024.73;;;17.79;62.98
31911;BME280;18457;52.432;16.914;2023-04-29T10:45:24;100029.61;;;18.10;67.17
31911;BME280;18457;52.432;16.914;2023-04-29T10:48:15;100031.16;;;18.38;65.82
31911;BME280;18457;52.432;16.914;2023-04-29T10:51:03;100034.52;;;18.46;61.53
31911;BME280;18457;52.432;16.914;2023-04-29T10:53:36;100032.53;;;18.49;64.38
31911;BME280;18457;52.432;16.914;2023-04-29T10:56:38;100032.52;;;18.46;65.35
31911;BME280;18457;52.432;16.914;2023-04-29T10:59:17;100027.72;;;18.50;65.66
31911;BME280;18457;52.432;16.914;2023-04-29T11:01:51;100032.95;;;18.35;64.72
31911;BME280;18457;52.432;16.914;2023-04-29T11:04:24;100031.34;;;18.45;62.55
31911;BME280;18457;52.432;16.914;2023-04-29T11:06:57;100033.07;;;18.52;61.95
31911;BME280;18457;52.432;16.914;2023-04-29T11:09:31;100034.20;;;18.43;61.02
31911;BME280;18457;52.432;16.914;2023-04-29T11:12:09;100032.08;;;18.06;59.99
31911;BME280;18457;52.432;16.914;2023-04-29T11:14:48;100040.85;;;18.17;63.25
31911;BME280;18457;52.432;16.914;2023-04-29T11:17:21;100039.09;;;18.04;61.83
31911;BME280;18457;52.432;16.914;2023-04-29T11:19:56;100038.27;;;18.09;62.89
31911;BME280;18457;52.432;16.914;2023-04-29T11:22:29;100037.48;;;18.21;63.48
31911;BME280;18457;52.432;16.914;2023-04-29T11:25:05;100042.29;;;18.21;63.00
31911;BME280;18457;52.432;16.914;2023-04-29T11:27:39;100035.98;;;18.04;63.90
31911;BME280;18457;52.432;16.914;2023-04-29T11:30:12;100038.96;;;18.09;64.40
31911;BME280;18457;52.432;16.914;2023-04-29T11:32:44;100040.23;;;18.21;64.37
31911;BME280;18457;52.432;16.914;2023-04-29T11:35:18;100038.33;;;18.20;64.47
31911;BME280;18457;52.432;16.914;2023-04-29T11:37:50;100034.54;;;18.40;64.76
31911;BME280;18457;52.432;16.914;2023-04-29T11:40:21;100034.31;;;18.58;65.08
31911;BME280;18457;52.432;16.914;2023-04-29T11:42:53;100033.70;;;18.62;64.56
31911;BME280;18457;52.432;16.914;2023-04-29T11:45:25;100034.19;;;18.69;64.48
31911;BME280;18457;52.432;16.914;2023-04-29T11:47:57;100035.56;;;18.62;63.02
31911;BME280;18457;52.432;16.914;2023-04-29T11:50:29;100037.89;;;18.48;63.78
31911;BME280;18457;52.432;16.914;2023-04-29T11:53:02;100038.48;;;18.50;65.49
31911;BME280;18457;52.432;16.914;2023-04-29T11:55:34;100039.18;;;18.54;64.56
31911;BME280;18457;52.432;16.914;2023-04-29T11:58:06;100035.82;;;18.66;65.37
31911;BME280;18457;52.432;16.914;2023-04-29T12:00:38;100034.74;;;18.74;64.52
31911;BME280;18457;52.432;16.914;2023-04-29T12:03:13;100033.80;;;18.60;65.50
31911;BME280;18457;52.432;16.914;2023-04-29T12:05:48;100039.44;;;18.72;64.86
31911;BME280;18457;52.432;16.914;2023-04-29T12:08:22;100040.05;;;18.77;64.92
31911;BME280;18457;52.432;16.914;2023-04-29T12:10:53;100037.86;;;18.89;64.65
31911;BME280;18457;52.432;16.914;2023-04-29T12:13:26;100040.37;;;18.87;63.95
31911;BME280;18457;52.432;16.914;2023-04-29T12:15:59;100038.95;;;19.08;64.26
31911;BME280;18457;52.432;16.914;2023-04-29T12:18:31;100031.80;;;19.28;64.01
31911;BME280;18457;52.432;16.914;2023-04-29T12:21:03;100029.29;;;19.55;63.38
31911;BME280;18457;52.432;16.914;2023-04-29T12:23:36;100026.55;;;19.55;63.67
31911;BME280;18457;52.432;16.914;2023-04-29T12:26:08;100032.94;;;19.55;63.35
31911;BME280;18457;52.432;16.914;2023-04-29T12:28:40;100033.27;;;19.39;62.65
31911;BME280;18457;52.432;16.914;2023-04-29T12:31:15;100028.44;;;18.87;63.67
31911;BME280;18457;52.432;16.914;2023-04-29T12:33:47;100035.13;;;18.88;65.20
31911;BME280;18457;52.432;16.914;2023-04-29T12:36:19;100033.09;;;19.05;64.59
31911;BME280;18457;52.432;16.914;2023-04-29T12:38:52;100029.38;;;19.03;64.12
31911;BME280;18457;52.432;16.914;2023-04-29T12:41:39;100024.83;;;18.97;64.25
31911;BME280;18457;52.432;16.914;2023-04-29T12:44:12;100026.30;;;19.03;64.50
31911;BME280;18457;52.432;16.914;2023-04-29T12:46:43;100022.40;;;18.67;65.26
31911;BME280;18457;52.432;16.914;2023-04-29T12:49:16;100024.36;;;18.71;66.38
31911;BME280;18457;52.432;16.914;2023-04-29T12:51:50;100024.23;;;18.35;66.77
31911;BME280;18457;52.432;16.914;2023-04-29T12:54:22;100019.84;;;18.20;68.46
31911;BME280;18457;52.432;16.914;2023-04-29T12:56:53;100020.98;;;18.10;69.04
31911;BME280;18457;52.432;16.914;2023-04-29T12:59:25;100024.43;;;17.96;69.80
31911;BME280;18457;52.432;16.914;2023-04-29T13:01:57;100022.48;;;17.80;71.79
31911;BME280;18457;52.432;16.914;2023-04-29T13:04:29;100016.73;;;17.75;72.03
31911;BME280;18457;52.432;16.914;2023-04-29T13:07:02;100014.80;;;17.71;73.08
31911;BME280;18457;52.432;16.914;2023-04-29T13:09:35;100011.61;;;17.73;72.93
31911;BME280;18457;52.432;16.914;2023-04-29T13:12:10;100010.13;;;17.70;73.32
31911;BME280;18457;52.432;16.914;2023-04-29T13:14:42;100016.16;;;17.73;73.10
31911;BME280;18457;52.432;16.914;2023-04-29T13:17:15;100013.23;;;17.79;73.09